createdAt,value
2018-09-13T00:02:35.772Z,6.47
2018-09-13T00:07:15.677Z,7.92
2018-09-13T00:11:56.733Z,6.33
2018-09-13T00:16:36.533Z,6.03
2018-09-13T00:21:16.864Z,7.25
2018-09-13T00:25:57.247Z,7.30
2018-09-13T00:30:37.220Z,8.80
2018-09-13T00:35:17.783Z,6.47
2018-09-13T00:39:59.168Z,7.80
2018-09-13T00:44:39.060Z,6.60
2018-09-13T00:49:18.920Z,9.43
2018-09-13T00:53:59.864Z,8.25
2018-09-13T00:58:40.140Z,7.60
2018-09-13T01:03:20.140Z,6.20
2018-09-13T01:08:00.669Z,6.80
2018-09-13T01:12:41.468Z,7.80
2018-09-13T01:17:22.285Z,10.85
2018-09-13T01:22:02.056Z,7.87
2018-09-13T01:26:42.646Z,8.35
2018-09-13T01:31:22.497Z,9.03
2018-09-13T01:36:03.191Z,7.58
2018-09-13T01:40:42.964Z,8.90
2018-09-13T01:45:22.848Z,9.48
2018-09-13T01:50:02.678Z,9.03
2018-09-13T01:54:42.656Z,8.48
2018-09-13T01:59:22.259Z,8.88
2018-09-13T02:04:02.740Z,11.28
2018-09-13T02:08:43.041Z,9.28
2018-09-13T02:13:22.981Z,10.30
2018-09-13T02:18:02.770Z,10.38
2018-09-13T02:22:42.793Z,11.05
2018-09-13T02:27:22.752Z,9.78
2018-09-13T02:32:02.764Z,11.38
2018-09-13T02:36:42.642Z,10.53
2018-09-13T02:41:22.797Z,11.68
2018-09-13T02:46:03.881Z,13.22
2018-09-13T02:50:43.609Z,11.50
2018-09-13T02:55:23.642Z,10.90
2018-09-13T03:00:04.624Z,12.00
2018-09-13T03:04:44.579Z,10.45
2018-09-13T03:09:24.561Z,11.57
2018-09-13T03:14:05.968Z,15.28
2018-09-13T03:18:46.593Z,13.08
2018-09-13T03:23:27.094Z,14.63
2018-09-13T03:28:07.539Z,11.78
2018-09-13T03:32:47.817Z,13.55
2018-09-13T03:37:28.752Z,11.78
2018-09-13T03:42:09.320Z,13.32
2018-09-13T03:46:50.103Z,11.85
2018-09-13T03:51:30.752Z,12.80
2018-09-13T03:56:12.883Z,14.10
2018-09-13T04:00:54.078Z,12.95
2018-09-13T04:05:34.999Z,11.45
2018-09-13T04:10:15.578Z,12.85
2018-09-13T04:14:56.580Z,15.18
2018-09-13T04:19:46.708Z,11.60
2018-09-13T04:24:26.829Z,10.48
2018-09-13T04:29:06.748Z,14.90
2018-09-13T04:33:46.940Z,17.27
2018-09-13T04:38:26.799Z,19.85
2018-09-13T04:43:06.820Z,12.82
2018-09-13T04:47:46.780Z,16.27
2018-09-13T04:52:29.114Z,13.53
2018-09-13T04:57:09.243Z,13.53
2018-09-13T05:01:49.409Z,14.05
2018-09-13T05:06:29.304Z,12.37
2018-09-13T05:11:11.116Z,13.50
2018-09-13T05:15:51.133Z,13.28
2018-09-13T05:20:31.120Z,19.02
2018-09-13T05:25:12.067Z,13.83
2018-09-13T05:29:52.444Z,16.67
2018-09-13T05:34:34.135Z,13.93
2018-09-13T05:39:15.064Z,16.35
2018-09-13T05:43:55.140Z,15.83
2018-09-13T05:48:35.144Z,15.35
2018-09-13T05:53:15.114Z,18.48
2018-09-13T05:57:56.105Z,17.57
2018-09-13T06:02:36.960Z,13.45
2018-09-13T06:07:17.026Z,15.20
2018-09-13T06:11:57.595Z,15.60
2018-09-13T06:16:37.411Z,16.02
2018-09-13T06:21:18.244Z,16.93
2018-09-13T06:25:59.848Z,21.48
2018-09-13T06:30:39.799Z,17.02
2018-09-13T06:35:20.576Z,17.05
2018-09-13T06:40:01.064Z,15.95
2018-09-13T06:44:40.833Z,21.20
2018-09-13T06:49:21.128Z,23.45
2018-09-13T06:54:01.525Z,27.15
2018-09-13T06:58:42.122Z,23.30
2018-09-13T07:03:22.111Z,23.20
2018-09-13T07:08:02.604Z,24.23
2018-09-13T07:12:43.047Z,23.70
2018-09-13T07:17:24.156Z,26.05
2018-09-13T07:22:04.177Z,24.50
2018-09-13T07:26:44.425Z,22.45
2018-09-13T07:31:24.124Z,21.75
2018-09-13T07:36:03.992Z,24.65
2018-09-13T07:40:45.010Z,22.37
2018-09-13T07:45:25.408Z,23.07
2018-09-13T07:50:05.327Z,20.20
2018-09-13T07:54:45.336Z,25.77
2018-09-13T07:59:26.051Z,24.12
2018-09-13T08:04:06.597Z,20.92
2018-09-13T08:08:47.510Z,27.80
2018-09-13T08:13:27.886Z,24.85
2018-09-13T08:18:09.073Z,21.33
2018-09-13T08:22:49.977Z,25.08
2018-09-13T08:27:30.800Z,21.50
2018-09-13T08:32:11.328Z,24.25
2018-09-13T08:36:51.201Z,20.95
2018-09-13T08:41:30.909Z,22.95
2018-09-13T08:46:11.180Z,20.72
2018-09-13T08:50:52.003Z,23.52
2018-09-13T08:55:31.840Z,25.20
2018-09-13T09:00:14.079Z,23.55
2018-09-13T09:04:53.945Z,28.10
2018-09-13T09:09:33.773Z,22.55
2018-09-13T09:14:13.682Z,22.75
2018-09-13T09:18:53.753Z,26.15
2018-09-13T09:23:33.872Z,21.62
2018-09-13T09:28:14.465Z,22.95
2018-09-13T09:32:55.217Z,23.32
2018-09-13T09:37:35.816Z,20.68
2018-09-13T09:42:16.780Z,24.55
2018-09-13T09:46:56.517Z,27.45
2018-09-13T09:51:37.510Z,23.80
2018-09-13T09:56:17.923Z,24.43
2018-09-13T10:01:03.803Z,19.98
2018-09-13T10:05:43.844Z,19.90
2018-09-13T10:10:24.082Z,21.12
2018-09-13T10:15:09.943Z,20.32
2018-09-13T10:19:55.096Z,20.15
2018-09-13T10:24:40.789Z,19.15
2018-09-13T10:29:27.077Z,20.30
2018-09-13T10:34:12.081Z,19.40
2018-09-13T10:38:57.376Z,20.10
2018-09-13T10:43:42.654Z,22.02
2018-09-13T10:48:26.453Z,20.68
2018-09-13T10:53:10.679Z,20.92
2018-09-13T10:57:51.469Z,18.15
2018-09-13T11:02:32.360Z,20.25
2018-09-13T11:07:12.668Z,25.80
2018-09-13T11:11:52.699Z,21.90
2018-09-13T11:16:32.972Z,21.87
2018-09-13T11:21:14.054Z,20.92
2018-09-13T11:25:54.143Z,21.40
2018-09-13T11:30:34.044Z,26.75
2018-09-13T11:35:13.992Z,24.30
2018-09-13T11:39:54.617Z,25.17
2018-09-13T11:44:34.536Z,25.92
2018-09-13T11:49:14.728Z,33.48
2018-09-13T11:53:54.660Z,27.98
2018-09-13T11:58:34.499Z,30.52
2018-09-13T12:03:15.233Z,37.63
2018-09-13T12:07:55.200Z,34.10
2018-09-13T12:12:35.608Z,36.42
2018-09-13T12:17:16.189Z,33.42
2018-09-13T12:21:57.385Z,36.73
2018-09-13T12:26:37.828Z,31.52
2018-09-13T12:31:18.444Z,26.95
2018-09-13T12:35:59.736Z,27.90
2018-09-13T12:40:39.719Z,29.27
2018-09-13T12:45:19.876Z,27.67
2018-09-13T12:50:00.392Z,22.07
2018-09-13T12:54:41.512Z,24.45
2018-09-13T12:59:22.244Z,21.90
2018-09-13T13:04:02.833Z,24.12
2018-09-13T13:08:42.967Z,26.05
2018-09-13T13:13:22.899Z,29.57
2018-09-13T13:18:04.087Z,26.33
2018-09-13T13:22:44.224Z,23.32
2018-09-13T13:27:24.228Z,25.20
2018-09-13T13:32:04.242Z,30.23
2018-09-13T13:36:44.866Z,28.10
2018-09-13T13:41:25.630Z,31.75
2018-09-13T13:46:06.313Z,26.05
2018-09-13T13:50:46.356Z,26.90
2018-09-13T13:55:26.847Z,30.17
2018-09-13T14:00:07.130Z,32.65
2018-09-13T14:04:47.878Z,36.63
2018-09-13T14:09:28.689Z,29.67
2018-09-13T14:14:09.760Z,28.92
2018-09-13T14:18:49.938Z,32.20
2018-09-13T14:23:29.973Z,29.85
2018-09-13T14:28:10.153Z,33.50
2018-09-13T14:32:50.698Z,30.30
2018-09-13T14:37:30.332Z,35.00
2018-09-13T14:42:10.775Z,38.13
2018-09-13T14:46:50.723Z,39.92
2018-09-13T14:51:41.240Z,38.35
2018-09-13T14:56:20.954Z,33.67
2018-09-13T15:01:00.985Z,36.68
2018-09-13T15:05:40.811Z,38.02
2018-09-13T15:10:20.561Z,33.23
2018-09-13T15:15:00.609Z,30.62
2018-09-13T15:19:40.757Z,34.50
2018-09-13T15:24:20.763Z,34.33
2018-09-13T15:29:00.791Z,35.28
2018-09-13T15:33:40.965Z,33.80
2018-09-13T15:38:21.600Z,32.65
2018-09-13T15:43:02.569Z,32.35
2018-09-13T15:47:42.975Z,34.65
2018-09-13T15:52:23.043Z,30.60
2018-09-13T15:57:03.481Z,28.38
2018-09-13T16:01:44.752Z,32.42
2018-09-13T16:06:24.824Z,31.75
2018-09-13T16:11:05.760Z,31.50
2018-09-13T16:15:45.800Z,31.33
2018-09-13T16:20:26.230Z,36.55
2018-09-13T16:25:05.581Z,35.10
2018-09-13T16:29:45.713Z,32.53
2018-09-13T16:34:26.548Z,37.63
2018-09-13T16:39:22.765Z,37.25
2018-09-13T16:44:05.105Z,31.85
2018-09-13T16:48:45.076Z,27.32
2018-09-13T16:53:24.786Z,23.67
2018-09-13T16:58:06.303Z,24.50
2018-09-13T17:02:47.025Z,23.85
2018-09-13T17:07:28.368Z,22.77
2018-09-13T17:12:08.459Z,20.65
2018-09-13T17:16:49.101Z,19.67
2018-09-13T17:21:28.985Z,21.42
2018-09-13T17:26:09.289Z,23.50
2018-09-13T17:30:49.882Z,23.57
2018-09-13T17:35:30.371Z,20.27
2018-09-13T17:40:10.514Z,19.20
2018-09-13T17:44:50.541Z,17.65
2018-09-13T17:49:31.161Z,18.92
2018-09-13T17:54:12.077Z,19.27
2018-09-13T17:58:52.909Z,20.10
2018-09-13T18:03:34.218Z,19.90
2018-09-13T18:08:14.125Z,18.20
2018-09-13T18:12:54.329Z,19.70
2018-09-13T18:17:34.805Z,17.35
2018-09-13T18:22:14.815Z,16.17
2018-09-13T18:26:54.687Z,15.72
2018-09-13T18:31:35.205Z,14.13
2018-09-13T18:36:15.252Z,15.90
2018-09-13T18:40:55.593Z,17.20
2018-09-13T18:45:35.452Z,17.67
2018-09-13T18:50:15.536Z,16.45
2018-09-13T18:54:55.244Z,18.90
2018-09-13T18:59:35.293Z,16.50
2018-09-13T19:04:15.093Z,16.17
2018-09-13T19:08:55.306Z,16.23
2018-09-13T19:13:34.996Z,15.48
2018-09-13T19:18:14.793Z,16.55
2018-09-13T19:22:54.656Z,16.87
2018-09-13T19:27:35.048Z,15.53
2018-09-13T19:32:16.114Z,16.32
2018-09-13T19:36:55.989Z,18.25
2018-09-13T19:41:35.989Z,19.05
2018-09-13T19:46:15.905Z,15.50
2018-09-13T19:50:55.865Z,14.80
2018-09-13T19:55:36.077Z,14.18
2018-09-13T20:00:15.925Z,14.53
2018-09-13T20:04:56.286Z,16.07
2018-09-13T20:09:36.355Z,19.55
2018-09-13T20:14:16.196Z,18.25
2018-09-13T20:18:55.899Z,21.82
2018-09-13T20:23:38.216Z,17.87
2018-09-13T20:28:18.142Z,19.35
2018-09-13T20:32:58.317Z,15.38
2018-09-13T20:37:38.074Z,17.55
2018-09-13T20:42:18.208Z,19.42
2018-09-13T20:46:57.839Z,22.60
2018-09-13T20:51:37.681Z,20.10
2018-09-13T20:56:19.280Z,18.20
2018-09-13T21:00:59.157Z,18.57
2018-09-13T21:05:39.161Z,19.75
2018-09-13T21:10:19.517Z,20.43
2018-09-13T21:14:59.637Z,21.45
2018-09-13T21:19:40.355Z,20.75
2018-09-13T21:24:20.560Z,22.80
2018-09-13T21:29:00.458Z,20.90
2018-09-13T21:33:41.076Z,21.30
2018-09-13T21:38:21.103Z,20.97
2018-09-13T21:43:00.888Z,24.52
2018-09-13T21:47:41.078Z,23.67
2018-09-13T21:52:20.955Z,21.90
2018-09-13T21:57:00.922Z,25.57
2018-09-13T22:01:41.583Z,24.45
2018-09-13T22:06:22.713Z,23.12
2018-09-13T22:11:02.777Z,27.37
2018-09-13T22:15:42.864Z,25.65
2018-09-13T22:20:23.288Z,24.02
2018-09-13T22:25:03.604Z,24.47
2018-09-13T22:29:44.244Z,24.15
2018-09-13T22:34:24.564Z,22.67
2018-09-13T22:39:06.723Z,25.40
2018-09-13T22:43:53.268Z,26.87
2018-09-13T22:48:33.124Z,26.75
2018-09-13T22:53:14.124Z,26.97
2018-09-13T22:57:54.804Z,25.48
2018-09-13T23:02:40.024Z,25.17
2018-09-13T23:07:20.052Z,27.58
2018-09-13T23:12:00.091Z,25.60
2018-09-13T23:16:40.059Z,29.92
2018-09-13T23:21:19.833Z,27.80
2018-09-13T23:25:59.685Z,27.30
2018-09-13T23:30:40.450Z,28.20
2018-09-13T23:35:20.380Z,31.42
2018-09-13T23:40:01.212Z,31.40
2018-09-13T23:44:41.591Z,31.02
2018-09-13T23:49:22.196Z,28.10
2018-09-13T23:54:02.188Z,33.15
2018-09-13T23:58:42.709Z,29.27
